Almeria, NE

2:26 AM CDT on July 24, 2014 (GMT -0500)
The O'Neill Municipal-Baker (KONL) Elev 2031 ft | 42.47 °N, 98.69 °W | Change Station

Current weather conditions updated 11 minutes ago

Clear
Clear
66 °F
Feels Like 66 °F
N
8
Wind Variable Wind from SE

Today is forecast to be Much Warmer than yesterday.

Today
High -- | Low -- °F
--% Chance of Precip.
Yesterday
High -- | Low -- °F
Precip. -- in
6:23 AM 9:04 PM
Waning Crescent, 6% visible
Pressure 30.14 in
Visibility 10.0 miles
Clouds Clear
Dew Point 57 °F
Humidity 75%
Rainfall 0.00 in
Snow Depth Not available.
UV 0 out of 12
Pollen 6.40 out of 12
Air Quality Not available.
Flu Activity Not available.
METAR KONL 240715Z AUTO 13007KT 10SM CLR 19/14 A3014 RMK AO2 T01860141

More Conditions Fewer Conditions

Pressure 30.14 in
Visibility 10.0 miles
Clouds Clear
Dew Point 57 °F
Humidity 75%
Rainfall 0.00 in
Snow Depth Not available.
UV 0 out of 12
Pollen 6.40 out of 12
Air Quality Not available.
Flu Activity Not available.
METAR KONL 240715Z AUTO 13007KT 10SM CLR 19/14 A3014 RMK AO2 T01860141

More Conditions Fewer Conditions

10-Day Weather Forecast

Almanac

Astronomy

Jul. 24, 2014 Rise Set
Actual Time 6:23 AM CDT 9:04 PM CDT
Civil Twilight 5:51 AM CDT 9:36 PM CDT
Nautical Twilight 5:11 AM CDT 10:16 PM CDT
Astronomical Twilight 4:24 AM CDT 11:02 PM CDT
Moon 4:33 AM CDT 7:19 PM CDT
Length of Visible Light 15h 44m
Length of Day
14h 40m
Tomorrow will be 1m 52s shorter.
Waning Crescent, 6% of the Moon is Illuminated
Today
Waning Crescent
Jul 26
New
Aug 3
First Quarter
Aug 10
Full
Aug 17
Last Quarter

Today's Extremes

State Highs State Lows

Community

WunderPhotos

Upload Photos

1,736,950 photos uploaded!

Nearby

Snow Depth

Station Depth Elevation
No new snow has been reported.

Earthquake Activity

City Distance Mag. Time & Date
No recent earthquake activity has been reported nearby.
Minimum magnitude displayed is 2.5.

Coastal Water Temperatures

Place Temperature
No Stations Reporting

Nearby Weather Stations

Station Location Temp. Dew Point Humidity Wind Precip. Elev Updated Type
Sargent, Sargent, NE 63.6 °F 61 °F 91% ESE  at  0.0 mph 0.00 in / hr 2314 ft 2:21 AM CDT Normal

Show More Stations Show Fewer Stations